Time;durP1;ratioP1;P1;durP2;ratioP2;P2;SDS_P1;SDS_P2;PMS_P1;PMS_P2;Temp;Humidity;BMP_temperature;BMP_pressure;BME280_temperature;BME280_humidity;BME280_pressure;Samples;Min_cycle;Max_cycle;Signal;HPM_P1;HPM_P2
2022/01/23 00:00:19;;;;;;;18.77;8.43;;;5.80;99.90;;;;;;4933252;29;20054;-87
2022/01/23 00:02:46;;;;;;;17.65;8.00;;;5.70;99.90;;;;;;4932931;28;20090;-87
2022/01/23 00:05:12;;;;;;;13.52;7.93;;;5.60;99.90;;;;;;4932631;29;20078;-87
2022/01/23 00:07:39;;;;;;;14.98;8.20;;;5.70;99.90;;;;;;4949408;28;20051;-87
2022/01/23 00:10:06;;;;;;;18.73;9.00;;;5.60;99.90;;;;;;4953621;28;20099;-87
2022/01/23 00:12:42;;;;;;;17.33;8.60;;;5.60;99.90;;;;;;4948763;29;20074;-86
2022/01/23 00:17:52;;;;;;;19.40;9.20;;;5.60;99.90;;;;;;4964740;28;20056;-87
2022/01/23 00:20:18;;;;;;;20.27;8.77;;;5.60;99.90;;;;;;4948927;29;20492;-87
2022/01/23 00:22:51;;;;;;;18.52;8.65;;;5.60;99.90;;;;;;4948686;28;20051;-87
2022/01/23 00:30:47;;;;;;;;;;;5.60;99.90;;;;;;4965066;28;20425;-87
2022/01/23 00:33:13;;;;;;;18.02;8.30;;;5.60;99.90;;;;;;4947944;28;19996;-87
2022/01/23 00:35:40;;;;;;;19.92;9.18;;;5.60;99.90;;;;;;4948237;29;20047;-87
2022/01/23 00:38:06;;;;;;;21.95;8.82;;;5.60;99.90;;;;;;4947669;29;20059;-86
2022/01/23 00:40:33;;;;;;;14.35;8.75;;;5.60;99.90;;;;;;4932362;29;20059;-86
2022/01/23 00:43:01;;;;;;;21.30;8.90;;;5.60;99.90;;;;;;4947898;29;20039;-86
2022/01/23 00:48:05;;;;;;;21.35;8.85;;;5.60;99.90;;;;;;4948141;29;20055;-87
2022/01/23 00:50:39;;;;;;;15.65;8.82;;;5.60;99.90;;;;;;4948220;29;20047;-87
2022/01/23 00:53:08;;;;;;;24.77;9.13;;;5.50;99.90;;;;;;4947523;29;20051;-87
2022/01/23 00:55:34;;;;;;;19.63;9.10;;;6.30;99.90;;;;;;4967384;28;20132;-87
2022/01/23 00:57:59;;;;;;;18.13;9.35;;;5.60;99.90;;;;;;4950789;28;20120;-87
2022/01/23 01:00:25;;;;;;;16.73;8.30;;;5.60;99.90;;;;;;4950894;28;20055;-87
2022/01/23 01:02:51;;;;;;;19.55;8.32;;;6.10;99.90;;;;;;4935603;28;20507;-87
2022/01/23 01:05:17;;;;;;;16.92;7.60;;;5.60;99.90;;;;;;4936722;28;20353;-87
2022/01/23 01:07:43;;;;;;;16.15;8.13;;;5.50;99.90;;;;;;4954453;28;20361;-86
2022/01/23 01:10:14;;;;;;;17.38;7.97;;;5.50;99.90;;;;;;4922627;28;20054;-86
2022/01/23 01:12:43;;;;;;;17.10;8.77;;;5.60;99.90;;;;;;4971836;28;20097;-87
2022/01/23 01:31:48;;;;;;;15.02;7.20;;;5.50;99.90;;;;;;4969967;28;20090;-86
2022/01/23 01:34:13;;;;;;;18.02;7.93;;;5.50;99.90;;;;;;4939923;28;20088;-87
2022/01/23 01:36:49;;;;;;;17.92;7.57;;;5.50;99.90;;;;;;4954285;28;20381;-86
2022/01/23 01:39:21;;;;;;;21.75;7.38;;;6.20;99.90;;;;;;4953944;28;20098;-87
2022/01/23 01:41:46;;;;;;;16.42;7.35;;;6.20;99.90;;;;;;4954164;28;20049;-86
2022/01/23 01:44:12;;;;;;;15.05;7.53;;;6.40;99.90;;;;;;4953509;28;20046;-86
2022/01/23 01:46:38;;;;;;;12.38;7.53;;;5.50;99.90;;;;;;4954083;28;20078;-86
2022/01/23 01:49:04;;;;;;;18.05;7.38;;;5.50;99.90;;;;;;4953797;28;20092;-86
2022/01/23 01:51:32;;;;;;;17.38;7.32;;;5.50;99.90;;;;;;4971220;28;20054;-86
2022/01/23 01:54:05;;;;;;;15.95;7.25;;;5.50;99.90;;;;;;4938201;28;20066;-87
2022/01/23 01:56:38;;;;;;;12.50;7.63;;;5.50;99.90;;;;;;4954978;28;20384;-86
2022/01/23 01:59:19;;;;;;;17.80;7.80;;;5.50;99.90;;;;;;4938983;28;20468;-87
2022/01/23 02:14:46;;;;;;;20.35;7.32;;;5.70;99.90;;;;;;4970510;28;20159;-87
2022/01/23 02:56:14;;;;;;;20.05;8.90;;;6.10;99.90;;;;;;4894603;29;20094;-87
2022/01/23 02:58:55;;;;;;;22.42;9.77;;;5.60;99.90;;;;;;4934485;28;20058;-86
2022/01/23 03:01:21;;;;;;;23.70;9.95;;;5.60;99.90;;;;;;4952232;28;20451;-87
2022/01/23 03:03:56;;;;;;;22.05;9.73;;;5.60;99.90;;;;;;4969880;28;20043;-87
2022/01/23 03:09:55;;;;;;;21.02;9.23;;;5.60;99.90;;;;;;4924045;28;20065;-87
2022/01/23 03:30:33;;;;;;;22.27;9.13;;;5.60;99.90;;;;;;4967854;28;20561;-86
2022/01/23 03:32:59;;;;;;;20.17;9.80;;;5.60;99.90;;;;;;4938153;28;20093;-87
2022/01/23 03:35:25;;;;;;;21.02;9.52;;;5.80;99.90;;;;;;4968648;28;20481;-86
2022/01/23 03:37:50;;;;;;;19.83;8.45;;;5.60;99.90;;;;;;4952040;28;20507;-87
2022/01/23 03:40:16;;;;;;;22.35;9.05;;;5.60;99.90;;;;;;4969143;28;20047;-86
2022/01/23 03:42:44;;;;;;;18.08;8.88;;;5.50;99.90;;;;;;4968727;28;20051;-86
2022/01/23 03:47:52;;;;;;;22.48;9.32;;;5.60;99.90;;;;;;4921451;28;20628;-86
2022/01/23 03:50:18;;;;;;;22.73;9.38;;;5.60;99.90;;;;;;4953688;28;20050;-87
2022/01/23 03:52:44;;;;;;;21.00;9.02;;;5.50;99.90;;;;;;4968554;28;20538;-86
2022/01/23 03:55:10;;;;;;;21.20;9.55;;;5.50;99.90;;;;;;4935674;28;20602;-87
2022/01/23 03:57:35;;;;;;;19.38;8.95;;;5.50;99.90;;;;;;4935501;28;20054;-86
2022/01/23 04:00:02;;;;;;;21.88;9.75;;;5.90;99.90;;;;;;4951952;28;20400;-86
2022/01/23 04:02:27;;;;;;;20.58;9.10;;;5.60;99.90;;;;;;4951564;28;20051;-87
2022/01/23 04:04:53;;;;;;;17.80;9.57;;;5.60;99.90;;;;;;4969032;28;20055;-87
2022/01/23 04:07:25;;;;;;;22.35;9.07;;;5.60;99.90;;;;;;4951855;28;20051;-86
2022/01/23 04:09:51;;;;;;;20.98;9.45;;;5.60;99.90;;;;;;4920906;28;20647;-87
2022/01/23 05:01:25;;;;;;;17.13;8.10;;;6.30;99.90;;;;;;4970792;28;20055;-87
2022/01/23 05:06:58;;;;;;;18.88;8.82;;;5.50;99.90;;;;;;4971301;28;20070;-86
2022/01/23 05:09:24;;;;;;;15.93;7.95;;;5.50;99.90;;;;;;4928815;28;20070;-86
2022/01/23 05:11:51;;;;;;;19.08;8.65;;;5.50;99.90;;;;;;4937776;28;20043;-87
2022/01/23 05:14:21;;;;;;;17.15;8.45;;;5.50;99.90;;;;;;4938421;28;20049;-86
2022/01/23 05:16:47;;;;;;;16.05;8.70;;;5.60;99.90;;;;;;4954036;28;20129;-86
2022/01/23 05:19:12;;;;;;;16.35;7.40;;;5.50;99.90;;;;;;4971372;28;20495;-87
2022/01/23 05:21:57;;;;;;;14.98;8.40;;;6.00;99.90;;;;;;4953407;28;20399;-87
2022/01/23 05:24:27;;;;;;;;;;;5.50;99.90;;;;;;4954576;28;20047;-87
2022/01/23 05:27:00;;;;;;;16.85;7.93;;;5.50;99.90;;;;;;4969706;28;19964;-86
2022/01/23 05:29:26;;;;;;;19.27;8.07;;;5.50;99.90;;;;;;4938182;28;20066;-87
2022/01/23 05:31:53;;;;;;;17.42;9.00;;;5.80;99.90;;;;;;4953350;28;20683;-87
2022/01/23 05:34:21;;;;;;;17.88;8.77;;;5.60;99.90;;;;;;4938412;28;20061;-86
2022/01/23 05:36:46;;;;;;;14.32;8.38;;;5.50;99.90;;;;;;4937660;28;20058;-87
2022/01/23 05:39:14;;;;;;;14.77;8.70;;;5.40;99.90;;;;;;4971053;28;20050;-86
2022/01/23 05:41:39;;;;;;;20.73;8.95;;;5.50;99.90;;;;;;4937592;28;20058;-87
2022/01/23 05:44:05;;;;;;;18.85;9.30;;;5.90;99.90;;;;;;4937589;28;20046;-89
2022/01/23 05:46:31;;;;;;;20.70;9.20;;;5.50;99.90;;;;;;4969985;28;20133;-85
2022/01/23 05:48:56;;;;;;;18.77;9.05;;;5.50;99.90;;;;;;4952930;28;20046;-87
2022/01/23 05:51:22;;;;;;;18.25;9.40;;;5.80;99.90;;;;;;4953068;28;20086;-87
2022/01/23 05:53:48;;;;;;;20.05;10.10;;;5.50;99.90;;;;;;4936946;28;20046;-86
2022/01/23 05:56:16;;;;;;;21.35;9.45;;;5.50;99.90;;;;;;4953385;28;20090;-87
2022/01/23 05:58:42;;;;;;;19.42;9.32;;;5.50;99.90;;;;;;4970196;28;20702;-87
2022/01/23 06:01:08;;;;;;;19.33;9.20;;;5.50;99.90;;;;;;4953642;28;20114;-87
2022/01/23 06:03:33;;;;;;;17.42;9.40;;;5.50;99.90;;;;;;4970864;28;20590;-87
2022/01/23 06:05:59;;;;;;;23.15;9.85;;;5.50;99.90;;;;;;4937180;28;20050;-87
2022/01/23 06:08:25;;;;;;;16.88;8.82;;;5.50;99.90;;;;;;4970497;28;20139;-86
2022/01/23 06:10:56;;;;;;;16.90;9.02;;;5.50;99.90;;;;;;4969667;28;20420;-87
2022/01/23 06:13:23;;;;;;;19.20;8.98;;;5.50;99.90;;;;;;4954459;28;20074;-86
2022/01/23 06:15:48;;;;;;;19.10;9.20;;;6.40;99.90;;;;;;4953127;28;20046;-86
2022/01/23 06:18:14;;;;;;;20.58;9.73;;;5.50;99.90;;;;;;4953272;28;20051;-86
2022/01/23 06:20:40;;;;;;;21.00;9.48;;;5.50;99.90;;;;;;4969933;28;20050;-86
2022/01/23 06:23:06;;;;;;;21.85;9.55;;;5.50;99.90;;;;;;4953572;28;20054;-87
2022/01/23 06:25:36;;;;;;;20.38;9.38;;;5.50;99.90;;;;;;4955423;28;20065;-87
2022/01/23 06:28:06;;;;;;;31.27;10.13;;;5.50;99.90;;;;;;4954581;28;20592;-87
2022/01/23 06:30:32;;;;;;;19.95;9.85;;;5.50;99.90;;;;;;4953269;28;20051;-86
2022/01/23 06:32:58;;;;;;;18.73;9.90;;;5.50;99.90;;;;;;4952516;28;20394;-86
2022/01/23 06:35:24;;;;;;;25.33;9.82;;;5.50;99.90;;;;;;4937325;28;20053;-87
2022/01/23 06:37:49;;;;;;;20.08;10.43;;;5.50;99.90;;;;;;4969468;28;20050;-86
2022/01/23 06:40:15;;;;;;;20.50;10.00;;;6.00;99.90;;;;;;4936799;28;20057;-86
2022/01/23 06:42:41;;;;;;;22.60;10.55;;;5.50;99.90;;;;;;4952649;28;20122;-85
2022/01/23 06:45:07;;;;;;;17.42;9.85;;;4.60;99.90;;;;;;4952767;28;20489;-86
2022/01/23 06:47:33;;;;;;;20.67;10.40;;;5.60;99.90;;;;;;4970078;28;20047;-86
2022/01/23 06:49:58;;;;;;;22.85;10.73;;;5.70;99.90;;;;;;4952366;28;20066;-87
2022/01/23 06:52:24;;;;;;;22.13;10.20;;;5.60;99.90;;;;;;4937068;28;20051;-87
2022/01/23 06:54:50;;;;;;;19.90;10.35;;;5.50;99.90;;;;;;4969319;28;20055;-86
2022/01/23 06:57:15;;;;;;;18.13;10.13;;;5.50;99.90;;;;;;4969993;28;20512;-87
2022/01/23 06:59:41;;;;;;;23.55;10.55;;;5.50;99.90;;;;;;4952217;28;20057;-86
2022/01/23 07:02:07;;;;;;;26.52;11.27;;;5.50;99.90;;;;;;4935311;28;20127;-86
2022/01/23 07:04:33;;;;;;;20.95;10.00;;;5.50;99.90;;;;;;4969830;28;20054;-87
2022/01/23 07:06:59;;;;;;;24.63;11.35;;;5.50;99.90;;;;;;4969045;28;20061;-86
2022/01/23 07:09:24;;;;;;;23.80;10.85;;;5.50;99.90;;;;;;4969962;28;20055;-86
2022/01/23 07:11:50;;;;;;;26.40;10.68;;;5.50;99.90;;;;;;4951835;28;20053;-87
2022/01/23 07:14:16;;;;;;;22.50;10.82;;;5.50;99.90;;;;;;4969688;28;20177;-87
2022/01/23 07:16:41;;;;;;;25.38;11.88;;;5.50;99.90;;;;;;4952344;28;20096;-86
2022/01/23 07:19:07;;;;;;;24.88;10.93;;;5.50;99.90;;;;;;4968864;28;20046;-87
2022/01/23 07:21:33;;;;;;;27.48;10.88;;;5.50;99.90;;;;;;4969478;28;20046;-86
2022/01/23 07:23:58;;;;;;;25.70;11.27;;;5.70;99.90;;;;;;4969115;28;20054;-87
2022/01/23 07:26:25;;;;;;;23.73;11.30;;;6.00;99.90;;;;;;4952585;28;20099;-86
2022/01/23 07:28:52;;;;;;;24.02;11.30;;;5.50;99.90;;;;;;4968951;28;20184;-86
2022/01/23 07:31:43;;;;;;;27.95;11.07;;;5.50;99.90;;;;;;4969714;28;20082;-87
2022/01/23 07:34:11;;;;;;;24.02;10.93;;;6.00;99.90;;;;;;4938665;28;20591;-86
2022/01/23 07:36:37;;;;;;;25.80;11.02;;;5.50;99.90;;;;;;4936319;28;20057;-86
2022/01/23 07:39:03;;;;;;;22.65;11.68;;;5.50;99.90;;;;;;4951679;28;20055;-86
2022/01/23 07:41:29;;;;;;;19.95;10.75;;;5.50;99.90;;;;;;4935980;28;20100;-86
2022/01/23 07:43:55;;;;;;;22.83;10.73;;;5.50;99.90;;;;;;4967631;28;20122;-86
2022/01/23 07:46:21;;;;;;;21.08;10.65;;;5.50;99.90;;;;;;4969261;28;20047;-86
2022/01/23 07:48:47;;;;;;;18.70;9.95;;;5.50;99.90;;;;;;4969246;28;20058;-86
2022/01/23 07:51:13;;;;;;;20.13;10.57;;;5.50;99.90;;;;;;4936032;28;20522;-86
2022/01/23 07:53:38;;;;;;;21.90;10.43;;;5.60;99.90;;;;;;4951922;28;20054;-86
2022/01/23 07:56:04;;;;;;;20.30;9.75;;;5.50;99.90;;;;;;4968423;28;20069;-86
2022/01/23 07:58:30;;;;;;;21.50;9.48;;;5.50;99.90;;;;;;4951921;28;20059;-86
2022/01/23 08:00:56;;;;;;;18.80;9.35;;;5.50;99.90;;;;;;4968345;28;20485;-86
2022/01/23 08:03:21;;;;;;;17.15;9.05;;;5.60;99.90;;;;;;4969158;28;20488;-86
2022/01/23 08:05:47;;;;;;;15.85;9.10;;;5.60;99.90;;;;;;4951751;28;20057;-86
2022/01/23 08:08:13;;;;;;;16.58;8.52;;;5.60;99.90;;;;;;4968426;28;20112;-85
2022/01/23 08:10:38;;;;;;;15.52;9.38;;;5.90;99.90;;;;;;4951779;28;20070;-86
2022/01/23 08:13:05;;;;;;;17.88;8.55;;;5.70;99.90;;;;;;4936055;28;20133;-86
2022/01/23 08:15:31;;;;;;;14.68;8.63;;;5.60;99.90;;;;;;4972336;28;20050;-86
2022/01/23 08:18:01;;;;;;;14.00;8.93;;;6.50;99.90;;;;;;4938475;28;20103;-86
2022/01/23 08:20:27;;;;;;;16.67;7.95;;;5.70;99.90;;;;;;4922894;28;20108;-85
2022/01/23 08:22:53;;;;;;;13.27;8.13;;;5.70;99.90;;;;;;4971686;28;20058;-85
2022/01/23 08:25:19;;;;;;;14.45;8.02;;;5.70;99.90;;;;;;4954915;28;20042;-86
2022/01/23 08:27:44;;;;;;;15.32;8.10;;;6.20;99.90;;;;;;4972468;28;20054;-86
2022/01/23 08:30:13;;;;;;;13.10;8.20;;;5.70;99.90;;;;;;4963461;28;20042;-85
2022/01/23 08:32:38;;;;;;;13.43;7.75;;;5.80;99.90;;;;;;4964417;28;20404;-86
2022/01/23 08:35:05;;;;;;;13.98;7.90;;;5.80;99.90;;;;;;4938526;28;20047;-86
2022/01/23 08:37:31;;;;;;;12.98;7.60;;;5.80;99.90;;;;;;4954911;28;20051;-86
2022/01/23 08:39:56;;;;;;;14.00;7.75;;;5.90;99.90;;;;;;4954265;28;20559;-86
2022/01/23 08:42:22;;;;;;;10.48;7.20;;;5.90;99.90;;;;;;4922967;28;20069;-86
2022/01/23 08:44:49;;;;;;;11.05;6.63;;;5.80;99.90;;;;;;4955163;28;20053;-86
2022/01/23 08:47:14;;;;;;;12.90;6.97;;;5.80;99.90;;;;;;4954016;28;20865;-86
2022/01/23 08:49:48;;;;;;;10.20;6.97;;;5.90;99.90;;;;;;4971926;28;20082;-86
2022/01/23 08:52:19;;;;;;;11.17;7.37;;;5.90;99.90;;;;;;4924261;28;20054;-86
2022/01/23 08:54:46;;;;;;;12.00;7.28;;;5.90;99.90;;;;;;4935242;29;20063;-85
2022/01/23 08:57:12;;;;;;;8.93;7.10;;;5.90;99.90;;;;;;4950383;29;20055;-86
2022/01/23 08:59:38;;;;;;;9.55;6.65;;;6.00;99.90;;;;;;4951044;29;20101;-86
2022/01/23 09:02:04;;;;;;;11.15;6.85;;;6.00;99.90;;;;;;4951735;28;20051;-86
2022/01/23 09:04:30;;;;;;;9.63;6.70;;;6.00;99.90;;;;;;4935116;29;20568;-86
2022/01/23 09:06:56;;;;;;;9.35;6.75;;;6.00;99.90;;;;;;4952216;29;20130;-86
2022/01/23 09:09:23;;;;;;;10.45;6.63;;;6.10;99.90;;;;;;4950445;29;20102;-86
2022/01/23 09:14:20;;;;;;;10.15;5.38;;;6.20;99.90;;;;;;4919862;29;20546;-86
2022/01/23 09:16:46;;;;;;;7.93;4.75;;;6.20;99.90;;;;;;4950799;29;20051;-85
2022/01/23 09:19:12;;;;;;;6.70;4.63;;;6.20;99.90;;;;;;4950222;29;20120;-86
2022/01/23 09:21:38;;;;;;;5.45;4.15;;;6.20;99.90;;;;;;4951995;29;20051;-86
2022/01/23 09:24:05;;;;;;;5.95;4.13;;;6.40;99.90;;;;;;4949650;28;20047;-86
2022/01/23 09:26:31;;;;;;;5.03;3.97;;;6.30;99.90;;;;;;4918311;29;20055;-86
2022/01/23 09:28:59;;;;;;;6.35;3.65;;;6.40;99.90;;;;;;4951773;29;20408;-86
2022/01/23 09:31:48;;;;;;;4.25;3.80;;;6.40;99.90;;;;;;4950469;29;20579;-86
2022/01/23 09:34:17;;;;;;;6.22;3.80;;;6.40;99.90;;;;;;4924630;29;20091;-86
2022/01/23 09:36:42;;;;;;;6.88;4.00;;;6.30;99.90;;;;;;4934905;29;20527;-86
2022/01/23 09:39:10;;;;;;;6.57;4.15;;;6.40;99.90;;;;;;4950835;29;20035;-86
2022/01/23 09:41:35;;;;;;;7.18;4.78;;;6.60;99.90;;;;;;4950478;28;20059;-86
2022/01/23 09:44:01;;;;;;;6.45;4.38;;;6.40;99.90;;;;;;4950235;29;20385;-85
2022/01/23 09:46:27;;;;;;;7.72;4.47;;;6.40;99.90;;;;;;4950003;29;20074;-86
2022/01/23 09:48:53;;;;;;;8.32;4.10;;;6.50;99.90;;;;;;4966347;28;20374;-85
2022/01/23 09:51:24;;;;;;;6.53;4.13;;;6.60;99.90;;;;;;4950650;29;20048;-85
2022/01/23 09:53:55;;;;;;;5.93;4.22;;;6.60;99.90;;;;;;4934082;29;20052;-85
2022/01/23 09:56:27;;;;;;;5.78;3.92;;;6.70;99.90;;;;;;4968904;28;20058;-85
2022/01/23 09:59:02;;;;;;;7.95;3.65;;;6.80;99.90;;;;;;4938285;28;20055;-87
2022/01/23 10:01:28;;;;;;;4.38;3.55;;;5.70;99.90;;;;;;4936836;28;20059;-86
2022/01/23 10:03:54;;;;;;;3.80;2.90;;;6.80;99.90;;;;;;4921490;28;20104;-86
2022/01/23 10:06:20;;;;;;;2.67;2.20;;;6.80;99.90;;;;;;4937371;28;20054;-86
2022/01/23 10:08:46;;;;;;;3.15;2.10;;;6.90;99.90;;;;;;4970533;28;20074;-86
2022/01/23 10:11:13;;;;;;;2.70;2.45;;;6.90;99.90;;;;;;4921249;28;20107;-86
2022/01/23 10:13:40;;;;;;;5.05;3.00;;;6.90;99.90;;;;;;4953152;28;20136;-87
2022/01/23 10:16:06;;;;;;;4.88;3.10;;;6.90;99.90;;;;;;4937019;28;20050;-86
2022/01/23 10:18:32;;;;;;;3.30;2.72;;;7.00;99.90;;;;;;4953088;28;20054;-85
2022/01/23 10:20:58;;;;;;;3.90;2.80;;;7.40;99.90;;;;;;4970574;28;20077;-86
2022/01/23 10:23:24;;;;;;;3.55;2.30;;;7.00;99.90;;;;;;4970401;28;20062;-86
2022/01/23 10:25:51;;;;;;;3.13;2.42;;;7.10;99.90;;;;;;4937629;28;20047;-87
2022/01/23 10:28:20;;;;;;;3.38;2.80;;;7.20;99.90;;;;;;4940022;28;20050;-87
2022/01/23 10:30:58;;;;;;;3.13;2.70;;;7.30;99.90;;;;;;4938246;28;20046;-87
2022/01/23 10:33:24;;;;;;;4.18;2.60;;;7.40;99.90;;;;;;4940157;28;20119;-90
2022/01/23 10:36:05;;;;;;;4.60;2.50;;;7.50;99.90;;;;;;4983116;28;20059;-86
2022/01/23 10:38:32;;;;;;;2.08;1.90;;;7.50;99.90;;;;;;4987076;28;20046;-88
2022/01/23 10:41:14;;;;;;;3.35;2.10;;;7.60;99.90;;;;;;4957799;28;20051;-89
2022/01/23 10:46:49;;;;;;;2.42;2.13;;;7.60;99.90;;;;;;4962258;28;20058;-92
2022/01/23 10:49:14;;;;;;;3.20;2.75;;;7.70;99.90;;;;;;4974215;28;20061;-91
2022/01/23 10:51:40;;;;;;;1.77;1.45;;;7.70;99.90;;;;;;4974796;28;20083;-90
2022/01/23 10:54:15;;;;;;;2.33;2.00;;;7.90;99.90;;;;;;4990661;28;20051;-87
2022/01/23 10:57:01;;;;;;;2.22;0.90;;;7.60;99.90;;;;;;4955560;28;20119;-87
2022/01/23 10:59:47;;;;;;;0.80;0.70;;;7.70;99.90;;;;;;4955823;28;20065;-87
2022/01/23 11:02:21;;;;;;;1.30;0.70;;;7.70;99.90;;;;;;4973496;28;20069;-87
2022/01/23 11:05:07;;;;;;;1.10;1.00;;;7.80;99.90;;;;;;4973913;28;20113;-88
2022/01/23 11:07:33;;;;;;;1.77;1.20;;;7.70;99.90;;;;;;4955882;28;20046;-87
2022/01/23 11:10:05;;;;;;;2.15;1.10;;;7.60;99.90;;;;;;4956067;28;20046;-88
2022/01/23 11:17:21;;;;;;;1.67;0.80;;;7.60;99.90;;;;;;4971758;28;20479;-86
2022/01/23 11:18:33;;;;;;;1.17;0.90;;;8.00;99.90;;;;;;4956911;28;20360;-86
2022/01/23 11:20:58;;;;;;;2.10;1.10;;;7.40;99.90;;;;;;4971407;28;20062;-86
2022/01/23 11:23:27;;;;;;;1.35;1.25;;;7.40;99.90;;;;;;4970854;28;20126;-86
2022/01/23 11:25:52;;;;;;;2.10;1.35;;;7.40;99.90;;;;;;4955564;28;20053;-87
2022/01/23 11:28:18;;;;;;;2.30;1.40;;;7.40;99.90;;;;;;4955254;28;20058;-87
2022/01/23 11:30:46;;;;;;;2.55;1.50;;;7.40;99.90;;;;;;4971325;28;20046;-87
2022/01/23 11:33:16;;;;;;;1.95;1.80;;;7.30;99.90;;;;;;4955591;28;20420;-86
2022/01/23 11:35:42;;;;;;;2.40;1.85;;;7.30;99.90;;;;;;4956088;28;20046;-86
2022/01/23 11:38:14;;;;;;;2.38;1.80;;;7.20;99.90;;;;;;4988802;28;20061;-86
2022/01/23 11:54:01;;;;;;;2.42;1.05;;;7.20;99.90;;;;;;4971474;28;20062;-85
2022/01/23 11:56:40;;;;;;;0.90;0.90;;;7.30;99.90;;;;;;4970222;28;20070;-86
2022/01/23 11:59:15;;;;;;;1.05;0.93;;;7.10;99.90;;;;;;4988449;28;20086;-86
2022/01/23 12:01:43;;;;;;;1.85;0.80;;;7.20;99.90;;;;;;4970328;28;20133;-86
2022/01/23 12:04:09;;;;;;;1.02;1.02;;;7.20;99.90;;;;;;4970951;28;20438;-86
2022/01/23 12:06:36;;;;;;;1.40;1.00;;;7.20;99.90;;;;;;4970769;28;20563;-86
2022/01/23 12:09:28;;;;;;;2.35;0.90;;;7.20;99.90;;;;;;4970302;28;20408;-86
2022/01/23 12:12:08;;;;;;;3.70;0.80;;;7.20;99.90;;;;;;4987735;28;20508;-86
2022/01/23 12:17:15;;;;;;;1.05;0.63;;;7.30;99.90;;;;;;4971394;28;20111;-86
2022/01/23 12:19:51;;;;;;;1.63;0.77;;;7.30;99.90;;;;;;4970355;28;20085;-86
2022/01/23 12:22:32;;;;;;;1.58;0.93;;;7.40;99.90;;;;;;4987807;28;20511;-86
2022/01/23 12:25:04;;;;;;;0.60;0.60;;;7.40;99.90;;;;;;4970505;28;20068;-87
2022/01/23 12:27:31;;;;;;;0.70;0.70;;;7.80;99.90;;;;;;4970263;28;20046;-86
2022/01/23 12:30:10;;;;;;;1.00;0.70;;;7.50;99.90;;;;;;4987832;28;20453;-87
2022/01/23 12:32:36;;;;;;;1.60;0.70;;;7.50;99.90;;;;;;4938370;28;20050;-89
2022/01/23 12:35:04;;;;;;;1.85;0.70;;;7.60;99.90;;;;;;4954671;28;20135;-87
2022/01/23 12:37:55;;;;;;;1.02;0.70;;;7.50;99.90;;;;;;4954546;28;20058;-87
2022/01/23 12:40:31;;;;;;;1.20;1.10;;;7.50;99.90;;;;;;4990208;28;20111;-87
2022/01/23 12:43:21;;;;;;;2.90;1.13;;;7.60;99.90;;;;;;4974100;28;20047;-87
2022/01/23 12:45:56;;;;;;;1.50;1.40;;;7.60;99.90;;;;;;4970537;28;20042;-86
2022/01/23 12:48:25;;;;;;;1.92;1.50;;;7.50;99.90;;;;;;4954343;28;20762;-87
2022/01/23 12:51:01;;;;;;;2.80;1.65;;;7.50;99.90;;;;;;4970752;28;20100;-87
2022/01/23 12:53:48;;;;;;;1.55;1.33;;;7.50;99.90;;;;;;4987348;28;20047;-87
2022/01/23 12:56:22;;;;;;;2.67;1.67;;;7.50;99.90;;;;;;4950801;28;20458;-87
2022/01/23 12:59:09;;;;;;;2.43;1.60;;;7.50;99.90;;;;;;4935130;28;20050;-87
2022/01/23 13:01:34;;;;;;;1.85;1.48;;;7.50;99.90;;;;;;4954310;28;20055;-87
2022/01/23 13:04:02;;;;;;;1.88;1.42;;;7.50;99.90;;;;;;4970389;28;20069;-87
2022/01/23 13:06:36;;;;;;;1.30;1.20;;;7.70;99.90;;;;;;4938712;28;20450;-87
2022/01/23 13:12:07;;;;;;;2.72;1.20;;;7.60;99.90;;;;;;4971721;28;20104;-87
2022/01/23 13:32:20;;;;;;;2.50;1.20;;;7.70;99.90;;;;;;4939843;28;20512;-85
2022/01/23 13:34:58;;;;;;;1.75;1.30;;;7.50;99.90;;;;;;4967325;28;20043;-85
2022/01/23 13:37:26;;;;;;;2.58;1.73;;;7.50;99.90;;;;;;4952092;28;20100;-85
2022/01/23 13:39:59;;;;;;;1.35;1.20;;;7.60;99.90;;;;;;4968573;28;20128;-85
2022/01/23 14:04:27;;;;;;;2.08;1.60;;;7.50;99.90;;;;;;4954866;28;20062;-86
2022/01/23 14:06:53;;;;;;;3.28;1.80;;;7.50;99.90;;;;;;4970270;28;20525;-86
2022/01/23 14:09:19;;;;;;;3.83;1.92;;;7.50;99.90;;;;;;4954858;28;20136;-86
2022/01/23 14:11:45;;;;;;;2.38;1.67;;;7.50;99.90;;;;;;4953638;28;20093;-85
2022/01/23 14:14:12;;;;;;;1.83;1.70;;;7.50;99.90;;;;;;4987724;28;20070;-85
2022/01/23 14:16:37;;;;;;;3.30;1.50;;;7.50;99.90;;;;;;4986588;28;20492;-86
2022/01/23 14:19:23;;;;;;;1.60;1.40;;;7.50;99.90;;;;;;4970234;28;20133;-86
2022/01/23 14:21:52;;;;;;;2.83;1.75;;;7.50;99.90;;;;;;4954802;28;20054;-86
2022/01/23 14:24:30;;;;;;;2.88;1.70;;;7.50;99.90;;;;;;4970633;28;20047;-85
2022/01/23 14:27:03;;;;;;;3.17;1.50;;;7.50;99.90;;;;;;4969493;28;20054;-87
2022/01/23 14:29:30;;;;;;;1.88;1.65;;;7.40;99.90;;;;;;4953924;28;20384;-86
2022/01/23 14:32:14;;;;;;;1.77;1.63;;;7.40;99.90;;;;;;4969716;28;20042;-86
2022/01/23 14:34:41;;;;;;;;;;;7.30;99.90;;;;;;4955517;28;20400;-86
2022/01/23 14:37:07;;;;;;;3.75;1.85;;;7.30;99.90;;;;;;4938401;28;20008;-84
2022/01/23 14:39:34;;;;;;;2.10;1.70;;;7.20;99.90;;;;;;4953880;28;20133;-85
2022/01/23 14:42:18;;;;;;;2.83;1.50;;;7.20;99.90;;;;;;4969652;28;20964;-85
2022/01/23 14:44:44;;;;;;;3.42;2.28;;;7.20;99.90;;;;;;4953939;28;20053;-86
2022/01/23 14:47:10;;;;;;;2.90;1.98;;;7.20;99.90;;;;;;4954540;28;20046;-85
2022/01/23 14:49:37;;;;;;;2.30;1.60;;;7.20;99.90;;;;;;4969767;28;20689;-85
2022/01/23 14:52:03;;;;;;;3.75;1.80;;;7.20;99.90;;;;;;4953574;28;20503;-86
2022/01/23 14:54:31;;;;;;;2.88;1.83;;;7.20;99.90;;;;;;4970070;28;20380;-87
2022/01/23 14:57:01;;;;;;;2.42;1.75;;;7.10;99.90;;;;;;4986125;28;20058;-87
2022/01/23 14:59:26;;;;;;;2.22;1.67;;;7.10;99.90;;;;;;4954568;28;20048;-87
2022/01/23 15:01:52;;;;;;;1.80;1.70;;;7.10;99.90;;;;;;4953175;28;20054;-85
2022/01/23 15:04:20;;;;;;;2.35;2.08;;;7.10;99.90;;;;;;4953554;28;20050;-85
2022/01/23 15:06:46;;;;;;;3.97;2.10;;;7.10;99.90;;;;;;4969528;28;20465;-85
2022/01/23 15:09:14;;;;;;;3.22;2.00;;;7.10;99.90;;;;;;4969296;28;20111;-85
2022/01/23 15:11:39;;;;;;;3.40;2.00;;;7.80;99.90;;;;;;4987075;28;20050;-85
2022/01/23 15:14:06;;;;;;;4.78;2.50;;;7.00;99.90;;;;;;4986593;28;20141;-85
2022/01/23 15:16:32;;;;;;;2.95;2.30;;;7.00;99.90;;;;;;4969735;28;20046;-84
2022/01/23 15:18:57;;;;;;;2.83;2.53;;;7.10;99.90;;;;;;4969332;28;20131;-87
2022/01/23 15:21:23;;;;;;;5.47;2.58;;;7.20;99.90;;;;;;4969230;28;20046;-87
2022/01/23 15:23:55;;;;;;;2.88;2.00;;;7.00;99.90;;;;;;4967944;28;20053;-86
2022/01/23 15:26:21;;;;;;;10.93;5.65;;;7.00;99.90;;;;;;4987257;28;20110;-86
2022/01/23 15:28:47;;;;;;;6.93;4.80;;;7.00;99.90;;;;;;4985821;28;20503;-85
2022/01/23 15:31:12;;;;;;;9.02;5.53;;;7.00;99.90;;;;;;4986751;28;20095;-87
2022/01/23 15:33:38;;;;;;;3.63;2.20;;;6.90;99.90;;;;;;4953389;28;20038;-86
2022/01/23 15:36:04;;;;;;;6.45;3.53;;;6.90;99.90;;;;;;4985765;28;20046;-86
2022/01/23 15:38:30;;;;;;;17.88;10.80;;;6.90;99.90;;;;;;4969387;28;20126;-86
2022/01/23 15:40:55;;;;;;;11.95;8.45;;;6.90;99.90;;;;;;4952290;28;20069;-87
2022/01/23 15:43:21;;;;;;;9.88;6.68;;;6.90;99.90;;;;;;4937378;28;20050;-87
2022/01/23 15:45:47;;;;;;;5.13;3.80;;;6.90;99.90;;;;;;4968895;28;20510;-87
2022/01/23 15:48:13;;;;;;;4.00;3.25;;;6.80;99.90;;;;;;4968690;28;20085;-87
2022/01/23 15:50:38;;;;;;;4.07;2.00;;;6.80;99.90;;;;;;4968989;28;20129;-86
2022/01/23 15:53:04;;;;;;;4.80;2.65;;;6.80;99.90;;;;;;4985829;28;20559;-86
2022/01/23 15:55:30;;;;;;;2.90;2.58;;;6.80;99.90;;;;;;4968522;28;20065;-87
2022/01/23 15:57:56;;;;;;;3.17;2.38;;;6.80;99.90;;;;;;4985995;28;20087;-87
2022/01/23 16:00:22;;;;;;;3.38;2.22;;;6.80;99.90;;;;;;4937191;28;20192;-87
2022/01/23 16:02:48;;;;;;;2.88;2.42;;;6.80;99.90;;;;;;4952288;28;20133;-88
2022/01/23 16:05:14;;;;;;;4.32;2.60;;;6.80;99.90;;;;;;4952954;28;20067;-87
2022/01/23 16:07:40;;;;;;;2.85;2.50;;;6.80;99.90;;;;;;4969025;28;20051;-86
2022/01/23 16:10:06;;;;;;;6.03;2.55;;;6.80;99.90;;;;;;4968338;28;20550;-85
2022/01/23 16:12:32;;;;;;;2.40;2.20;;;6.70;99.90;;;;;;4952757;28;20042;-87
2022/01/23 16:14:57;;;;;;;3.13;1.83;;;6.70;99.90;;;;;;4985485;28;20057;-87
2022/01/23 16:17:23;;;;;;;3.55;2.03;;;6.80;99.90;;;;;;4969403;28;20054;-86
2022/01/23 16:19:50;;;;;;;2.22;1.90;;;6.70;99.90;;;;;;4968968;28;20042;-86
2022/01/23 16:22:16;;;;;;;4.05;2.70;;;6.70;99.90;;;;;;4969001;28;20043;-86
2022/01/23 16:24:41;;;;;;;3.33;2.95;;;6.70;99.90;;;;;;4969052;28;20107;-86
2022/01/23 16:27:07;;;;;;;4.88;2.50;;;6.70;99.90;;;;;;4967809;28;20042;-86
2022/01/23 16:29:32;;;;;;;2.95;2.13;;;6.70;99.90;;;;;;4986189;28;20046;-86
2022/01/23 16:31:59;;;;;;;4.10;2.60;;;6.70;99.90;;;;;;4967878;28;20082;-86
2022/01/23 16:34:28;;;;;;;4.65;3.10;;;6.70;99.90;;;;;;4970128;28;20054;-86
2022/01/23 16:36:55;;;;;;;4.30;2.78;;;7.00;99.90;;;;;;4972183;28;20057;-86
2022/01/23 16:39:20;;;;;;;2.80;2.30;;;6.70;99.90;;;;;;4972791;28;20090;-86